Time;durP1;ratioP1;P1;durP2;ratioP2;P2;SDS_P1;SDS_P2;PMS_P1;PMS_P2;Temp;Humidity;BMP_temperature;BMP_pressure;BME280_temperature;BME280_humidity;BME280_pressure;Samples;Min_cycle;Max_cycle;Signal;HPM_P1;HPM_P2
2023/12/11 06:26:57;;;;;;;;;;;;;;;10.43;79.91;96373.63;4265487;27;10183;-67
2023/12/11 06:29:00;;;;;;;;;;;;;;;10.73;77.96;96381.13;4268451;27;5687;-67
2023/12/11 06:31:04;;;;;;;;;;;;;;;10.93;77.98;96397.81;4257912;27;5585;-68
2023/12/11 06:33:07;;;;;;;;;;;;;;;11.09;77.70;96410.59;4251056;27;5876;-67
2023/12/11 06:35:11;;;;;;;;;;;;;;;11.21;77.29;96420.56;4261841;27;5688;-68
2023/12/11 06:37:13;;;;;;;;;;;;;;;11.36;77.05;96426.47;4261912;27;5788;-68
2023/12/11 06:39:16;;;;;;;;;;;;;;;11.48;76.81;96443.31;4256754;27;5659;-68
2023/12/11 06:41:18;;;;;;;;;;;;;;;11.59;76.52;96450.63;4260820;27;5694;-69
2023/12/11 06:43:23;;;;;;;;;;;;;;;11.69;75.94;96447.56;4260285;27;5098;-67
2023/12/11 06:45:26;;;;;;;;;;;;;;;11.75;75.78;96452.00;4265007;27;6173;-68
2023/12/11 06:47:31;;;;;;;;;;;;;;;11.81;75.73;96429.22;4262860;27;6357;-68
2023/12/11 06:49:34;;;;;;;;;;;;;;;11.87;75.12;96415.13;4265547;27;5659;-68
2023/12/11 06:51:38;;;;;;;;;;;;;;;11.85;74.43;96383.53;4263893;27;5593;-69
2023/12/11 06:53:40;;;;;;;;;;;;;;;11.90;74.63;96377.63;4263336;27;5683;-69
2023/12/11 06:55:43;;;;;;;;;;;;;;;11.92;74.24;96378.22;4263907;27;5585;-69
2023/12/11 06:57:46;;;;;;;;;;;;;;;11.91;74.14;96355.41;4264957;27;6299;-68
2023/12/11 06:59:50;;;;;;;;;;;;;;;11.93;73.98;96354.19;4253782;27;5616;-68
2023/12/11 07:01:54;;;;;;;;;;;;;;;11.93;73.42;96342.78;4247431;27;5592;-68
2023/12/11 07:03:56;;;;;;;;;;;;;;;11.90;72.72;96327.31;4247950;27;5608;-67
2023/12/11 07:05:59;;;;;;;;;;;;;;;11.87;73.31;96348.91;4261563;27;5589;-68
2023/12/11 07:08:02;;;;;;;;;;;;;;;11.89;73.61;96344.19;4250065;27;5164;-69
2023/12/11 07:10:05;;;;;;;;;;;;;;;11.93;73.38;96340.94;4248833;27;7658;-68
2023/12/11 07:12:09;;;;;;;;;;;;;;;11.94;73.47;96344.38;4258883;27;5585;-68
2023/12/11 07:14:12;;;;;;;;;;;;;;;11.96;73.59;96350.28;4262074;27;5950;-73
2023/12/11 07:16:16;;;;;;;;;;;;;;;11.98;72.83;96315.63;4259936;27;6389;-72
2023/12/11 07:18:20;;;;;;;;;;;;;;;11.97;72.65;96306.88;4247711;27;5848;-72
2023/12/11 07:20:24;;;;;;;;;;;;;;;11.94;72.55;96310.75;4260977;27;5583;-72
2023/12/11 07:22:27;;;;;;;;;;;;;;;11.93;73.05;96306.50;4263978;27;5705;-72
2023/12/11 07:24:30;;;;;;;;;;;;;;;11.97;72.90;96314.81;4264294;27;5848;-72
2023/12/11 07:26:33;;;;;;;;;;;;;;;12.00;72.93;96324.97;4260449;27;5657;-72
2023/12/11 07:28:36;;;;;;;;;;;;;;;12.01;72.73;96342.53;4252504;27;5582;-72
2023/12/11 07:30:39;;;;;;;;;;;;;;;12.02;72.66;96354.75;4251897;27;5728;-72
2023/12/11 07:32:44;;;;;;;;;;;;;;;12.05;72.70;96356.16;4249218;27;5880;-72
2023/12/11 07:34:47;;;;;;;;;;;;;;;12.07;72.61;96349.59;4248275;27;5795;-72
2023/12/11 07:36:52;;;;;;;;;;;;;;;12.10;72.75;96354.47;4252374;27;5605;-72
2023/12/11 07:38:55;;;;;;;;;;;;;;;12.10;72.28;96359.78;4252475;27;5648;-72
2023/12/11 07:40:59;;;;;;;;;;;;;;;12.09;72.23;96363.44;4252985;27;6271;-72
2023/12/11 07:43:02;;;;;;;;;;;;;;;12.08;72.30;96361.03;4253112;27;5581;-72
2023/12/11 07:45:06;;;;;;;;;;;;;;;12.06;72.35;96349.81;4251913;27;5759;-72
2023/12/11 07:47:09;;;;;;;;;;;;;;;12.06;72.18;96355.94;4257324;27;5679;-72
2023/12/11 07:49:15;;;;;;;;;;;;;;;12.05;72.31;96349.00;4235607;28;5767;-72
2023/12/11 07:51:20;;;;;;;;;;;;;;;12.06;72.19;96355.94;4246902;27;6298;-71
2023/12/11 07:53:23;;;;;;;;;;;;;;;12.10;72.33;96362.41;4248503;27;5672;-72
2023/12/11 07:55:26;;;;;;;;;;;;;;;12.13;71.98;96369.97;4252000;27;5577;-71
2023/12/11 07:57:29;;;;;;;;;;;;;;;12.10;71.63;96374.84;4249728;27;5728;-72
2023/12/11 07:59:33;;;;;;;;;;;;;;;12.05;71.90;96375.50;4244386;27;5732;-72
2023/12/11 08:01:36;;;;;;;;;;;;;;;12.05;71.84;96372.06;4251915;27;5574;-72
2023/12/11 08:03:39;;;;;;;;;;;;;;;12.05;71.58;96375.50;4247207;27;5592;-72
2023/12/11 08:05:44;;;;;;;;;;;;;;;12.08;71.85;96379.56;4251438;27;5718;-72
2023/12/11 08:07:47;;;;;;;;;;;;;;;12.12;71.86;96383.44;4249835;27;5597;-72
2023/12/11 08:09:50;;;;;;;;;;;;;;;12.15;71.57;96372.41;4243763;27;5898;-72
2023/12/11 08:11:53;;;;;;;;;;;;;;;12.16;71.97;96372.19;4237307;27;6302;-72
2023/12/11 08:13:57;;;;;;;;;;;;;;;12.19;72.05;96374.41;4251104;27;5668;-72
2023/12/11 08:15:59;;;;;;;;;;;;;;;12.23;71.79;96351.75;4251641;27;5593;-72
2023/12/11 08:18:03;;;;;;;;;;;;;;;12.23;71.54;96341.16;4252034;27;5582;-72
2023/12/11 08:20:09;;;;;;;;;;;;;;;12.21;71.70;96337.91;4248772;27;5629;-72
2023/12/11 08:22:17;;;;;;;;;;;;;;;12.18;71.98;96348.94;4251056;27;5703;-72
2023/12/11 08:24:20;;;;;;;;;;;;;;;12.22;72.11;96362.56;4251737;27;5723;-72
2023/12/11 08:26:24;;;;;;;;;;;;;;;12.26;72.18;96360.31;4220708;28;5871;-72
2023/12/11 08:28:26;;;;;;;;;;;;;;;12.30;72.13;96356.19;4251163;27;5961;-72
2023/12/11 08:30:29;;;;;;;;;;;;;;;12.35;71.94;96361.69;4240310;27;5767;-73
2023/12/11 08:32:32;;;;;;;;;;;;;;;12.36;72.02;96372.06;4238925;27;5819;-72
2023/12/11 08:34:34;;;;;;;;;;;;;;;12.39;71.97;96362.88;4250979;27;5624;-72
2023/12/11 08:36:38;;;;;;;;;;;;;;;12.42;72.23;96370.38;4251992;27;5827;-72
2023/12/11 08:38:42;;;;;;;;;;;;;;;12.44;72.00;96358.53;4250699;27;5570;-72
2023/12/11 08:40:45;;;;;;;;;;;;;;;12.47;72.00;96362.63;4247819;27;5820;-73
2023/12/11 08:42:48;;;;;;;;;;;;;;;12.49;71.95;96350.75;4249728;27;5764;-73
2023/12/11 08:44:51;;;;;;;;;;;;;;;12.53;71.90;96356.44;4244903;27;5677;-72
2023/12/11 08:46:54;;;;;;;;;;;;;;;12.58;72.08;96353.16;4244430;27;5671;-72
2023/12/11 08:48:58;;;;;;;;;;;;;;;12.60;72.07;96343.94;4241795;27;5775;-72
2023/12/11 08:51:02;;;;;;;;;;;;;;;12.62;72.06;96346.38;4244324;27;5581;-72
2023/12/11 08:53:06;;;;;;;;;;;;;;;12.63;71.75;96346.16;4246686;27;5577;-73
2023/12/11 08:55:09;;;;;;;;;;;;;;;12.65;71.75;96360.00;4243611;27;5727;-72
2023/12/11 08:57:12;;;;;;;;;;;;;;;12.68;71.95;96369.34;4249898;27;5697;-72
2023/12/11 08:59:16;;;;;;;;;;;;;;;12.68;72.05;96364.06;4250508;27;5590;-73
2023/12/11 09:01:19;;;;;;;;;;;;;;;12.69;71.84;96355.91;4244933;27;5735;-71
2023/12/11 09:03:22;;;;;;;;;;;;;;;12.71;71.89;96358.34;4244329;27;5731;-72
2023/12/11 09:05:25;;;;;;;;;;;;;;;12.72;71.96;96352.81;4245140;27;5882;-72
2023/12/11 09:07:29;;;;;;;;;;;;;;;12.72;71.65;96352.81;4249546;27;5598;-72
2023/12/11 09:09:32;;;;;;;;;;;;;;;12.74;71.88;96361.38;4239587;27;5582;-72
2023/12/11 09:11:36;;;;;;;;;;;;;;;12.76;72.00;96364.59;4245718;27;5790;-72
2023/12/11 09:13:40;;;;;;;;;;;;;;;12.78;71.80;96377.66;4249875;27;5590;-72
2023/12/11 09:15:43;;;;;;;;;;;;;;;12.80;71.86;96373.78;4250668;27;5711;-72
2023/12/11 09:17:47;;;;;;;;;;;;;;;12.83;71.69;96383.13;4251033;27;5588;-72
2023/12/11 09:19:49;;;;;;;;;;;;;;;12.86;71.99;96376.56;4246991;27;5735;-72
2023/12/11 09:21:57;;;;;;;;;;;;;;;12.87;71.74;96379.00;4243660;27;5883;-72
2023/12/11 09:24:00;;;;;;;;;;;;;;;12.89;71.94;96384.09;4245321;27;6661;-72
2023/12/11 09:26:04;;;;;;;;;;;;;;;12.91;71.68;96376.72;4243523;27;5110;-72
2023/12/11 09:28:08;;;;;;;;;;;;;;;12.91;71.69;96366.09;4251208;27;5585;-73
2023/12/11 09:30:12;;;;;;;;;;;;;;;12.92;71.79;96365.91;4240586;27;5620;-72
2023/12/11 09:32:15;;;;;;;;;;;;;;;12.94;71.87;96352.44;4251327;27;5596;-72
2023/12/11 09:34:18;;;;;;;;;;;;;;;12.95;71.96;96360.16;4246774;27;5589;-72
2023/12/11 09:36:21;;;;;;;;;;;;;;;12.98;72.18;96372.19;4247887;27;5665;-73
2023/12/11 09:38:24;;;;;;;;;;;;;;;12.98;71.86;96374.81;4250937;27;6021;-72
2023/12/11 09:40:27;;;;;;;;;;;;;;;12.98;72.08;96372.19;4241072;27;5669;-72
2023/12/11 09:42:30;;;;;;;;;;;;;;;12.99;72.18;96373.78;4251114;27;5119;-72
2023/12/11 09:44:35;;;;;;;;;;;;;;;13.00;71.96;96367.47;4243932;27;5582;-72
2023/12/11 09:46:48;;;;;;;;;;;;;;;13.03;72.27;96367.84;4248778;27;5585;-73
2023/12/11 09:48:53;;;;;;;;;;;;;;;13.05;72.29;96373.75;4248632;27;5668;-73
2023/12/11 09:50:56;;;;;;;;;;;;;;;13.05;72.27;96375.59;4250089;27;5721;-72
2023/12/11 09:53:01;;;;;;;;;;;;;;;13.06;72.41;96372.72;4237977;27;5825;-72
2023/12/11 09:55:05;;;;;;;;;;;;;;;13.08;72.28;96370.66;4251265;27;5601;-72
2023/12/11 09:57:11;;;;;;;;;;;;;;;13.10;72.43;96368.59;4251102;27;5574;-72
2023/12/11 09:59:15;;;;;;;;;;;;;;;13.12;72.35;96365.69;4247887;27;5677;-72
2023/12/11 10:01:19;;;;;;;;;;;;;;;13.15;72.45;96364.47;4250153;27;5714;-72
2023/12/11 10:03:22;;;;;;;;;;;;;;;13.18;72.78;96353.41;4257648;27;5866;-72
2023/12/11 10:05:26;;;;;;;;;;;;;;;13.17;72.70;96363.22;4261360;27;6709;-71
2023/12/11 10:07:28;;;;;;;;;;;;;;;13.20;72.87;96359.34;4250115;27;5589;-72
2023/12/11 10:09:34;;;;;;;;;;;;;;;13.20;72.74;96357.50;4249069;27;5656;-72
2023/12/11 10:11:37;;;;;;;;;;;;;;;13.23;73.38;96354.41;4243189;27;5592;-72
2023/12/11 10:13:40;;;;;;;;;;;;;;;13.26;73.32;96347.84;4248329;27;5582;-72
2023/12/11 10:15:44;;;;;;;;;;;;;;;13.26;73.44;96350.50;4250868;27;5576;-72
2023/12/11 10:17:59;;;;;;;;;;;;;;;13.29;73.32;96348.22;4248393;27;5589;-72
2023/12/11 10:20:05;;;;;;;;;;;;;;;13.30;73.41;96343.72;4250785;27;5684;-72
2023/12/11 10:22:08;;;;;;;;;;;;;;;13.33;73.49;96352.03;4250073;27;5605;-72
2023/12/11 10:24:14;;;;;;;;;;;;;;;13.36;73.77;96354.28;4250421;27;5603;-72
2023/12/11 10:26:17;;;;;;;;;;;;;;;13.40;73.54;96358.09;4242501;27;5765;-72
2023/12/11 10:28:20;;;;;;;;;;;;;;;13.41;73.81;96372.19;4233630;28;5832;-72
2023/12/11 10:30:23;;;;;;;;;;;;;;;13.43;73.60;96361.34;4239986;27;5605;-72
2023/12/11 10:32:29;;;;;;;;;;;;;;;13.42;73.75;96349.09;4249411;27;5578;-72
2023/12/11 10:34:45;;;;;;;;;;;;;;;13.44;74.04;96347.03;4250005;27;5585;-73
2023/12/11 10:36:50;;;;;;;;;;;;;;;13.45;74.11;96346.81;4249957;27;5606;-75
2023/12/11 10:39:08;;;;;;;;;;;;;;;13.46;74.05;96355.59;4250737;27;5614;-73
2023/12/11 10:41:25;;;;;;;;;;;;;;;13.47;74.05;96355.34;4250224;27;5589;-74
2023/12/11 10:43:28;;;;;;;;;;;;;;;13.48;74.36;96359.66;4229169;28;5944;-74
2023/12/11 10:45:38;;;;;;;;;;;;;;;13.51;74.45;96363.72;4248405;27;5581;-74
2023/12/11 10:47:41;;;;;;;;;;;;;;;13.52;74.54;96360.81;4247159;27;5771;-73
2023/12/11 10:49:45;;;;;;;;;;;;;;;13.53;74.58;96351.00;4241090;27;5585;-74
2023/12/11 10:51:48;;;;;;;;;;;;;;;13.56;74.58;96339.94;4249358;27;5951;-74
2023/12/11 10:53:52;;;;;;;;;;;;;;;13.57;74.70;96326.44;4245854;27;6308;-73
2023/12/11 10:55:57;;;;;;;;;;;;;;;13.61;74.88;96334.78;4239668;27;5581;-73
2023/12/11 10:58:03;;;;;;;;;;;;;;;13.63;74.76;96340.69;4242617;27;5677;-76
2023/12/11 11:00:13;;;;;;;;;;;;;;;13.63;74.71;96336.19;4249657;27;6421;-74
2023/12/11 11:02:19;;;;;;;;;;;;;;;13.65;74.50;96343.94;4250048;27;6433;-72
2023/12/11 11:04:22;;;;;;;;;;;;;;;13.67;74.74;96347.16;4250179;27;5616;-75
2023/12/11 11:06:31;;;;;;;;;;;;;;;13.68;74.74;96340.81;4241180;27;5885;-73
2023/12/11 11:08:41;;;;;;;;;;;;;;;13.69;74.67;96345.91;4253858;27;6195;-74
2023/12/11 11:10:52;;;;;;;;;;;;;;;13.71;74.78;96342.22;4253886;27;6287;-73
2023/12/11 11:13:06;;;;;;;;;;;;;;;13.71;74.70;96343.03;4251316;27;5701;-74
2023/12/11 11:15:10;;;;;;;;;;;;;;;13.74;74.83;96347.09;4253289;27;5695;-75
2023/12/11 11:17:13;;;;;;;;;;;;;;;13.79;74.99;96344.56;4253213;27;7980;-73
2023/12/11 11:19:16;;;;;;;;;;;;;;;13.83;74.89;96335.94;4253838;27;5731;-75
2023/12/11 11:21:19;;;;;;;;;;;;;;;13.84;74.87;96310.19;4249819;27;5634;-75
2023/12/11 11:23:26;;;;;;;;;;;;;;;13.88;74.75;96321.97;4236554;28;5704;-76
2023/12/11 11:25:33;;;;;;;;;;;;;;;13.92;74.86;96321.28;4237445;27;6247;-74
2023/12/11 11:27:42;;;;;;;;;;;;;;;13.95;74.68;96307.56;4242463;27;5762;-73
2023/12/11 11:29:45;;;;;;;;;;;;;;;13.97;74.52;96305.50;4240394;27;5809;-74
2023/12/11 11:31:50;;;;;;;;;;;;;;;14.04;74.65;96312.53;4252005;27;5685;-75
2023/12/11 11:33:56;;;;;;;;;;;;;;;14.05;74.29;96330.94;4232090;27;6281;-75
2023/12/11 11:35:59;;;;;;;;;;;;;;;14.06;74.53;96315.81;4238063;27;6276;-74
2023/12/11 11:38:02;;;;;;;;;;;;;;;14.08;74.43;96319.03;4239159;27;5672;-74
2023/12/11 11:40:08;;;;;;;;;;;;;;;14.09;74.34;96318.00;4243648;27;5926;-74
2023/12/11 11:42:11;;;;;;;;;;;;;;;14.11;74.11;96319.38;4237905;27;5786;-76
2023/12/11 11:44:15;;;;;;;;;;;;;;;14.13;74.18;96317.31;4241184;27;5677;-74
2023/12/11 11:46:17;;;;;;;;;;;;;;;14.13;73.98;96319.97;4251614;27;6417;-76
2023/12/11 11:48:20;;;;;;;;;;;;;;;14.14;74.10;96316.28;4251463;27;5569;-74
2023/12/11 11:50:23;;;;;;;;;;;;;;;14.16;74.11;96318.72;4250798;27;5573;-73
2023/12/11 11:52:28;;;;;;;;;;;;;;;14.16;74.01;96308.09;4251613;27;5726;-73
2023/12/11 11:54:33;;;;;;;;;;;;;;;14.15;73.87;96306.44;4244795;27;5597;-72
2023/12/11 11:56:47;;;;;;;;;;;;;;;14.13;74.01;96305.88;4249702;27;6282;-70
2023/12/11 11:58:50;;;;;;;;;;;;;;;14.17;73.93;96307.06;4248995;27;5759;-72
2023/12/11 12:01:03;;;;;;;;;;;;;;;14.21;74.07;96310.88;4252473;27;7159;-66
2023/12/11 12:03:08;;;;;;;;;;;;;;;14.23;73.81;96309.59;4233866;27;6417;-71
2023/12/11 12:05:11;;;;;;;;;;;;;;;14.20;73.72;96309.25;4253483;27;5585;-70
2023/12/11 12:07:15;;;;;;;;;;;;;;;14.23;73.88;96308.78;4241013;27;6448;-79
2023/12/11 12:09:17;;;;;;;;;;;;;;;14.25;73.84;96312.84;4251586;27;5578;-79
2023/12/11 12:11:20;;;;;;;;;;;;;;;14.25;73.74;96314.69;4251907;27;5570;-78
2023/12/11 12:13:27;;;;;;;;;;;;;;;14.27;73.87;96307.31;4254754;27;5567;-79
2023/12/11 12:15:30;;;;;;;;;;;;;;;14.29;73.67;96302.56;4259287;27;5750;-79
2023/12/11 12:17:33;;;;;;;;;;;;;;;14.30;73.82;96304.19;4254091;27;5697;-79
2023/12/11 12:19:37;;;;;;;;;;;;;;;14.33;73.85;96308.22;4254592;27;5660;-79
2023/12/11 12:21:48;;;;;;;;;;;;;;;14.33;73.77;96301.06;4250904;27;6304;-79
2023/12/11 12:24:02;;;;;;;;;;;;;;;14.32;74.03;96293.31;4254374;27;5672;-80
2023/12/11 12:26:06;;;;;;;;;;;;;;;14.33;73.92;96292.28;4247472;27;6489;-80
2023/12/11 12:28:13;;;;;;;;;;;;;;;14.32;73.99;96288.81;4254420;27;5589;-80
2023/12/11 12:30:18;;;;;;;;;;;;;;;14.35;74.21;96292.84;4245721;27;5598;-80
2023/12/11 12:32:22;;;;;;;;;;;;;;;14.36;74.14;96292.63;4251653;27;5586;-80
2023/12/11 12:34:26;;;;;;;;;;;;;;;14.36;74.16;96297.13;4251719;27;5693;-80
2023/12/11 12:36:30;;;;;;;;;;;;;;;14.35;74.21;96312.28;4249604;27;5589;-80
2023/12/11 12:38:33;;;;;;;;;;;;;;;14.36;74.22;96316.56;4237701;27;5584;-80
2023/12/11 12:40:36;;;;;;;;;;;;;;;14.37;74.27;96312.84;4232559;27;5103;-80
2023/12/11 12:42:40;;;;;;;;;;;;;;;14.38;74.46;96311.81;4252569;27;5827;-80
2023/12/11 12:44:43;;;;;;;;;;;;;;;14.39;74.56;96318.78;4251671;27;5793;-80
2023/12/11 12:46:46;;;;;;;;;;;;;;;14.40;74.64;96307.09;4252072;27;5075;-79
2023/12/11 12:48:50;;;;;;;;;;;;;;;14.41;74.68;96318.56;4245601;27;5652;-80
2023/12/11 12:51:05;;;;;;;;;;;;;;;14.41;74.83;96322.00;4249310;27;5910;-79
2023/12/11 12:53:10;;;;;;;;;;;;;;;14.41;74.90;96322.00;4247121;27;5566;-79
2023/12/11 12:55:12;;;;;;;;;;;;;;;14.42;74.84;96341.44;4252752;27;5597;-79
2023/12/11 12:57:16;;;;;;;;;;;;;;;14.41;74.88;96364.56;4251925;27;5586;-79
2023/12/11 12:59:19;;;;;;;;;;;;;;;14.38;75.01;96358.88;4245200;27;5589;-79
2023/12/11 13:01:23;;;;;;;;;;;;;;;14.39;75.04;96365.84;4247371;27;5731;-78
2023/12/11 13:03:27;;;;;;;;;;;;;;;14.40;75.20;96364.81;4247575;27;5637;-80
2023/12/11 13:05:40;;;;;;;;;;;;;;;14.41;75.26;96353.94;4251638;27;5590;-80
2023/12/11 13:07:56;;;;;;;;;;;;;;;14.39;75.88;96361.31;4251717;27;5610;-80
2023/12/11 13:10:10;;;;;;;;;;;;;;;14.30;75.60;96354.72;4250213;27;5581;-80
2023/12/11 13:12:15;;;;;;;;;;;;;;;14.20;75.78;96357.91;4247116;27;5724;-80
2023/12/11 13:14:18;;;;;;;;;;;;;;;14.16;75.99;96375.34;4251874;27;5725;-79
2023/12/11 13:16:22;;;;;;;;;;;;;;;14.16;75.93;96366.56;4247231;27;5574;-79
2023/12/11 13:18:25;;;;;;;;;;;;;;;14.14;75.95;96358.00;4248179;27;5780;-79
2023/12/11 13:20:30;;;;;;;;;;;;;;;14.15;76.66;96360.41;4250292;27;5589;-79
2023/12/11 13:22:35;;;;;;;;;;;;;;;14.14;76.58;96358.00;4246677;27;5581;-79
2023/12/11 13:24:37;;;;;;;;;;;;;;;14.15;76.60;96356.94;4249420;27;6517;-79
2023/12/11 13:26:40;;;;;;;;;;;;;;;14.14;76.54;96363.31;4250201;27;5878;-79
2023/12/11 13:28:43;;;;;;;;;;;;;;;14.17;76.60;96360.22;4248090;27;6741;-79
2023/12/11 13:30:46;;;;;;;;;;;;;;;14.17;76.75;96368.19;4247774;27;5743;-79
2023/12/11 13:32:49;;;;;;;;;;;;;;;14.17;76.65;96370.84;4248923;27;5590;-79
2023/12/11 13:34:52;;;;;;;;;;;;;;;14.15;76.35;96360.41;4243537;27;5671;-79
2023/12/11 13:36:58;;;;;;;;;;;;;;;14.14;76.55;96363.31;4244312;27;5593;-79
2023/12/11 13:39:01;;;;;;;;;;;;;;;14.11;75.70;96375.22;4253099;27;5817;-78
2023/12/11 13:41:04;;;;;;;;;;;;;;;14.08;75.42;96388.16;4251745;27;5582;-79
2023/12/11 13:43:07;;;;;;;;;;;;;;;14.05;75.58;96389.41;4250076;27;5803;-78
2023/12/11 13:45:11;;;;;;;;;;;;;;;14.03;75.45;96393.31;4251967;27;5574;-78
2023/12/11 13:47:14;;;;;;;;;;;;;;;14.02;75.44;96404.97;4252332;27;5578;-79
2023/12/11 13:49:17;;;;;;;;;;;;;;;13.98;75.37;96400.13;4244057;27;5586;-78
2023/12/11 13:51:20;;;;;;;;;;;;;;;13.97;75.70;96403.81;4243603;27;5667;-79
2023/12/11 13:53:25;;;;;;;;;;;;;;;13.97;75.48;96403.00;4251277;27;5602;-78
2023/12/11 13:55:29;;;;;;;;;;;;;;;13.96;74.87;96407.50;4252371;27;5652;-79
2023/12/11 13:57:33;;;;;;;;;;;;;;;13.94;75.15;96406.94;4252280;27;5098;-78
2023/12/11 13:59:36;;;;;;;;;;;;;;;13.97;75.39;96392.38;4245559;27;7663;-79
2023/12/11 14:01:39;;;;;;;;;;;;;;;13.99;75.32;96399.09;4249637;27;5735;-78
2023/12/11 14:03:43;;;;;;;;;;;;;;;14.05;75.25;96404.56;4252093;27;5789;-79
2023/12/11 14:05:45;;;;;;;;;;;;;;;14.07;75.18;96397.16;4249145;27;5594;-79
2023/12/11 14:07:48;;;;;;;;;;;;;;;14.06;74.25;96398.19;4249995;27;6277;-79
2023/12/11 14:09:53;;;;;;;;;;;;;;;14.05;74.47;96400.03;4244943;27;5578;-79
2023/12/11 14:11:56;;;;;;;;;;;;;;;14.08;74.42;96412.06;4234964;27;5612;-79
2023/12/11 14:13:59;;;;;;;;;;;;;;;14.07;74.45;96410.44;4240619;27;5600;-79
2023/12/11 14:16:02;;;;;;;;;;;;;;;14.08;74.67;96412.88;4252660;27;5814;-79
2023/12/11 14:18:06;;;;;;;;;;;;;;;14.11;74.45;96411.63;4250806;27;5585;-79
2023/12/11 14:20:12;;;;;;;;;;;;;;;14.13;74.45;96428.94;4246614;27;5673;-79
2023/12/11 14:22:15;;;;;;;;;;;;;;;14.13;74.48;96436.94;4252299;27;5622;-78
2023/12/11 14:24:17;;;;;;;;;;;;;;;14.12;74.08;96439.81;4245932;27;5709;-79
2023/12/11 14:26:22;;;;;;;;;;;;;;;14.11;73.82;96436.34;4250648;27;5606;-78
2023/12/11 14:28:25;;;;;;;;;;;;;;;14.10;73.88;96447.22;4248124;27;5593;-79
2023/12/11 14:30:28;;;;;;;;;;;;;;;14.11;73.55;96446.16;4248795;27;5810;-78
2023/12/11 14:32:32;;;;;;;;;;;;;;;14.13;73.24;96449.41;4250837;27;5590;-78
2023/12/11 14:34:40;;;;;;;;;;;;;;;14.14;73.32;96466.97;4249925;27;5679;-79
2023/12/11 14:36:45;;;;;;;;;;;;;;;14.14;73.35;96470.44;4251607;27;5676;-78
2023/12/11 14:38:48;;;;;;;;;;;;;;;14.15;73.22;96471.25;4252713;27;6276;-80
2023/12/11 14:40:51;;;;;;;;;;;;;;;14.17;73.22;96461.25;4248378;27;5780;-79
2023/12/11 14:42:56;;;;;;;;;;;;;;;14.17;73.33;96469.22;4251983;27;5562;-79
2023/12/11 14:44:59;;;;;;;;;;;;;;;14.17;73.08;96467.38;4253344;27;5780;-79
2023/12/11 14:47:02;;;;;;;;;;;;;;;14.17;72.93;96478.00;4252842;27;5617;-78
2023/12/11 14:49:05;;;;;;;;;;;;;;;14.15;73.15;96477.38;4249607;27;5122;-79
2023/12/11 14:51:07;;;;;;;;;;;;;;;14.16;72.83;96484.34;4250397;27;7658;-79
2023/12/11 14:53:10;;;;;;;;;;;;;;;14.17;72.94;96477.19;4252352;27;5645;-79
2023/12/11 14:55:14;;;;;;;;;;;;;;;14.18;72.74;96481.47;4250676;27;5582;-80
2023/12/11 14:57:27;;;;;;;;;;;;;;;14.16;72.66;96483.53;4250162;27;5594;-79
2023/12/11 14:59:32;;;;;;;;;;;;;;;14.16;72.67;96495.00;4251828;27;5595;-79
2023/12/11 15:01:35;;;;;;;;;;;;;;;14.18;72.31;96489.44;4248324;27;5597;-78
2023/12/11 15:03:38;;;;;;;;;;;;;;;14.18;72.29;96500.06;4250794;27;5770;-79
2023/12/11 15:05:41;;;;;;;;;;;;;;;14.17;72.43;96496.59;4251967;27;5067;-80
2023/12/11 15:07:44;;;;;;;;;;;;;;;14.17;72.57;96501.13;4254937;27;7666;-79
2023/12/11 15:09:48;;;;;;;;;;;;;;;14.17;72.47;96507.25;4252021;27;5586;-79
2023/12/11 15:11:52;;;;;;;;;;;;;;;14.18;72.45;96492.09;4251071;27;5903;-78
2023/12/11 15:13:55;;;;;;;;;;;;;;;14.19;72.63;96488.41;4254342;27;5719;-78
2023/12/11 15:16:01;;;;;;;;;;;;;;;14.19;72.45;96485.75;4250276;27;5781;-78
2023/12/11 15:18:05;;;;;;;;;;;;;;;14.19;72.40;96504.34;4253803;27;5755;-78
2023/12/11 15:20:12;;;;;;;;;;;;;;;14.18;72.14;96513.38;4234355;27;5604;-78
2023/12/11 15:22:15;;;;;;;;;;;;;;;14.18;72.26;96516.84;4250225;27;5581;-78
2023/12/11 15:24:18;;;;;;;;;;;;;;;14.16;72.39;96516.25;4254458;27;5720;-78
2023/12/11 15:26:22;;;;;;;;;;;;;;;14.17;72.33;96517.06;4251629;27;5594;-79
2023/12/11 15:28:25;;;;;;;;;;;;;;;14.17;72.24;96519.72;4251264;27;5582;-78
2023/12/11 15:30:28;;;;;;;;;;;;;;;14.16;72.20;96518.91;4250856;27;5693;-78
2023/12/11 15:32:33;;;;;;;;;;;;;;;14.17;72.10;96525.84;4253110;27;5587;-78
2023/12/11 15:34:40;;;;;;;;;;;;;;;14.16;72.08;96521.56;4253720;27;5668;-78
2023/12/11 15:36:43;;;;;;;;;;;;;;;14.17;72.26;96522.38;4255032;27;5684;-78
2023/12/11 15:38:46;;;;;;;;;;;;;;;14.17;72.11;96530.34;4250821;27;5752;-78
2023/12/11 15:40:49;;;;;;;;;;;;;;;14.15;72.25;96521.75;4251332;27;5693;-79
2023/12/11 15:42:53;;;;;;;;;;;;;;;14.15;72.37;96525.22;4244699;27;5617;-78
2023/12/11 15:44:57;;;;;;;;;;;;;;;14.16;72.34;96531.41;4248443;27;5668;-78
2023/12/11 15:47:00;;;;;;;;;;;;;;;14.15;72.19;96535.06;4233848;28;5600;-78
2023/12/11 15:49:03;;;;;;;;;;;;;;;14.15;72.23;96535.06;4251917;27;5669;-79
2023/12/11 15:51:09;;;;;;;;;;;;;;;14.15;72.09;96524.41;4252220;27;5827;-78
2023/12/11 15:53:12;;;;;;;;;;;;;;;14.14;72.13;96538.75;4251302;27;5983;-79
2023/12/11 15:55:18;;;;;;;;;;;;;;;14.13;72.19;96532.63;4252346;27;7069;-77
2023/12/11 15:57:21;;;;;;;;;;;;;;;14.13;72.25;96537.94;4251606;27;5577;-79
2023/12/11 15:59:24;;;;;;;;;;;;;;;14.13;72.01;96537.13;4250155;27;5570;-79
2023/12/11 16:01:27;;;;;;;;;;;;;;;14.13;72.12;96532.63;4253485;27;5692;-78
2023/12/11 16:03:30;;;;;;;;;;;;;;;14.12;72.11;96528.34;4254416;27;5706;-79
2023/12/11 16:05:35;;;;;;;;;;;;;;;14.12;72.21;96520.38;4254067;27;5669;-80
2023/12/11 16:07:38;;;;;;;;;;;;;;;14.11;71.97;96520.59;4254499;27;5780;-80
2023/12/11 16:09:42;;;;;;;;;;;;;;;14.11;71.92;96521.41;4253363;27;5670;-79
2023/12/11 16:11:45;;;;;;;;;;;;;;;14.13;71.95;96522.00;4256051;27;5610;-78
2023/12/11 16:13:48;;;;;;;;;;;;;;;14.12;71.85;96524.88;4249586;27;5592;-78
2023/12/11 16:15:52;;;;;;;;;;;;;;;14.14;72.05;96525.47;4251368;27;5674;-78
2023/12/11 16:17:55;;;;;;;;;;;;;;;14.13;72.05;96519.34;4247871;27;5585;-78
2023/12/11 16:19:58;;;;;;;;;;;;;;;14.14;71.95;96528.94;4243934;27;5600;-78
2023/12/11 16:22:02;;;;;;;;;;;;;;;14.14;71.97;96544.06;4250188;27;5565;-78
2023/12/11 16:24:05;;;;;;;;;;;;;;;14.14;71.83;96531.59;4250925;27;5649;-79
2023/12/11 16:26:13;;;;;;;;;;;;;;;14.13;71.95;96537.94;4253067;27;6312;-79
2023/12/11 16:28:16;;;;;;;;;;;;;;;14.14;71.73;96544.06;4253873;27;5598;-78
2023/12/11 16:30:19;;;;;;;;;;;;;;;14.14;71.72;96546.72;4253794;27;5636;-78
2023/12/11 16:32:22;;;;;;;;;;;;;;;14.14;71.74;96565.34;4253636;27;5704;-79
2023/12/11 16:34:26;;;;;;;;;;;;;;;14.15;71.65;96572.28;4252026;27;5693;-77
2023/12/11 16:36:30;;;;;;;;;;;;;;;14.13;71.78;96561.88;4253501;27;5692;-79
2023/12/11 16:38:34;;;;;;;;;;;;;;;14.12;71.79;96570.88;4248562;27;5589;-78
2023/12/11 16:40:37;;;;;;;;;;;;;;;14.13;71.79;96569.03;4252462;27;5586;-79
2023/12/11 16:42:40;;;;;;;;;;;;;;;14.12;71.51;96572.72;4253135;27;5618;-79
2023/12/11 16:44:47;;;;;;;;;;;;;;;14.13;71.60;96566.38;4253523;27;5618;-79
2023/12/11 16:46:49;;;;;;;;;;;;;;;14.13;71.83;96553.06;4253249;27;5752;-78
2023/12/11 16:48:51;;;;;;;;;;;;;;;14.13;71.58;96548.56;4253462;27;5601;-79
2023/12/11 16:50:55;;;;;;;;;;;;;;;14.13;71.34;96558.41;4247011;27;5740;-78
2023/12/11 16:52:58;;;;;;;;;;;;;;;14.14;71.48;96552.84;4252825;27;5684;-78
2023/12/11 16:55:02;;;;;;;;;;;;;;;14.13;71.49;96558.41;4253080;27;5823;-78
2023/12/11 16:57:05;;;;;;;;;;;;;;;14.14;71.57;96563.50;4251573;27;5668;-78
2023/12/11 16:59:08;;;;;;;;;;;;;;;14.14;71.57;96562.69;4247612;27;5597;-78
2023/12/11 17:01:12;;;;;;;;;;;;;;;14.14;71.35;96570.66;4251983;27;5569;-78
2023/12/11 17:03:15;;;;;;;;;;;;;;;14.13;71.45;96566.38;4251703;27;5669;-78
2023/12/11 17:05:19;;;;;;;;;;;;;;;14.14;71.47;96570.66;4251962;27;5589;-78
2023/12/11 17:07:22;;;;;;;;;;;;;;;14.14;71.41;96560.03;4253359;27;5661;-79
2023/12/11 17:09:25;;;;;;;;;;;;;;;14.14;71.44;96565.34;4246071;27;5598;-78
2023/12/11 17:11:34;;;;;;;;;;;;;;;14.12;71.26;96557.59;4243791;27;5730;-79
2023/12/11 17:13:38;;;;;;;;;;;;;;;14.13;71.38;96558.41;4252342;27;5669;-79
2023/12/11 17:15:42;;;;;;;;;;;;;;;14.14;71.55;96571.47;4249055;27;5098;-78
2023/12/11 17:17:45;;;;;;;;;;;;;;;14.14;71.26;96562.69;4251638;27;7678;-78
2023/12/11 17:19:48;;;;;;;;;;;;;;;14.13;71.42;96563.72;4249552;27;5665;-80
2023/12/11 17:21:51;;;;;;;;;;;;;;;14.14;71.40;96562.69;4251748;27;6477;-81